메인 페이지
METAR-TAF:

METAR-TAF

공항 :

Crestview, 플로리다, 미국

위도: 30-46-20N, 경도: 086-31-12W, 고도: 65m

현재 날씨관측

예보는 2 시간 55분 전, 14:34시(UTC)에 발표되었습니다.
3kt
온도 23°C
습도 94%
기압 1022 hPa
시정: 4.8km
고도 200ft 상공 흐림
박무

METAR: KCEW 171434Z AUTO 01003KT 3SM BR OVC002 23/22 A3019 RMK AO2 T02280217

시각: 12:29 (17:29 UTC)


TAF: 누락

4,000개 이상의 공항 관측 자료 및 예보 (METAR 및 TAF 보고).

지도상에서 검색 가능한 기상관측소가 노란 점과 빨간 점으로 표시되어 있습니다.

기상관측소 명을 보려면 표시 위로 마우스를 이동하세요.

날씨 관측과 예보를 보려면 클릭하세요.

지도 변경 : 확대하려면 엑스 표시가 있는 녹색 버튼, 축소하려면 빼기 표시가 있는 녹색 버튼, 다음 페이지의 지도를 보려면 녹색 화살표를 클릭하세요.


METAR-TAF: